Terminal Aerodrome Forecast
Issued by NWS Springfield, MO

Home | Current Version | Previous Version | Text Only | Print | Product List | Glossary On
Versions: 1 2 3 4 5 6 7 8 9 10 11 12 13 14 15 16 17 18 19 20
000
FTUS43 KSGF 060859 AAD
TAFSGF
TAF AMD
KSGF 060859Z 0609/0706 18004KT P6SM BKN090
     FM061100 29005KT 3SM BR BKN025
     FM061400 33010KT P6SM BKN015
     FM061500 34012KT P6SM SCT020
     FM061700 33012KT P6SM FEW200
     FM062300 33007KT P6SM BKN200=

USA.gov is the U.S. government's official web portal to all federal, state and local government web resources and services.